La Madera, New Mexico
Current Conditions -  °F | °C
As of 8:55 AM on Saturday 25 Oct 2014 (Local Time) from KSKX Reporting Station
Clear Clear  
Wind Chill: 39°   Ceiling: Unl
Heat Index: 43°   Visibility: 10mi
Dew Point: 25°   Wind: 7mph
Humidity: 49%   Direction: 350°N
Pressure: 30.41"   Gusts: NA
Location:  36.39°N, 106.04°W
Report Text: KSKX 251455Z AUTO 35006KT 10SM CLR 06/M04 A3041 RMK AO1 52007
Loading
Personal Weather Stations






























Interactive Weather Map New forecast layout! Learn more

10-Day Weather Forecast

Advertisements
Track Severe Weather on mobile